Time;durP1;ratioP1;P1;durP2;ratioP2;P2;SDS_P1;SDS_P2;PMS_P1;PMS_P2;Temp;Humidity;BMP_temperature;BMP_pressure;BME280_temperature;BME280_humidity;BME280_pressure;Samples;Min_cycle;Max_cycle;Signal;HPM_P1;HPM_P2
2022/02/22 00:02:22;;;;;;;4.30;3.90;;;;;;;14.70;56.60;98357.98;1824692;77;21536;-60
2022/02/22 00:05:47;;;;;;;3.60;3.30;;;;;;;14.73;56.62;98359.38;1850819;76;28451;-61
2022/02/22 00:08:14;;;;;;;4.35;3.40;;;;;;;14.69;56.58;98364.36;1834776;77;21041;-62
2022/02/22 00:10:42;;;;;;;4.00;3.60;;;;;;;14.69;56.56;98369.71;1837685;77;21118;-59
2022/02/22 00:13:08;;;;;;;3.62;3.20;;;;;;;14.68;56.58;98381.96;1787021;80;21388;-64
2022/02/22 00:15:34;;;;;;;3.60;3.30;;;;;;;14.67;56.59;98383.83;1791766;78;21040;-60
2022/02/22 00:18:02;;;;;;;4.28;3.87;;;;;;;14.67;56.58;98383.02;1773849;79;21052;-61
2022/02/22 00:20:28;;;;;;;3.33;3.02;;;;;;;14.66;56.58;98372.86;1781557;80;21046;-61
2022/02/22 00:22:55;;;;;;;4.10;3.67;;;;;;;14.66;56.55;98368.02;1802461;78;21842;-63
2022/02/22 00:25:21;;;;;;;4.12;3.67;;;;;;;14.65;56.55;98372.55;1802593;78;20957;-61
2022/02/22 00:27:48;;;;;;;3.72;3.33;;;;;;;14.65;56.53;98364.53;1787050;79;21143;-62
2022/02/22 00:30:15;;;;;;;3.80;3.40;;;;;;;14.64;56.53;98362.08;1764884;79;21061;-61
2022/02/22 00:32:42;;;;;;;4.47;3.50;;;;;;;14.64;56.54;98358.91;1765063;80;21026;-61
2022/02/22 00:35:10;;;;;;;3.30;3.00;;;;;;;14.63;56.52;98361.80;1781265;80;21108;-62
2022/02/22 00:37:38;;;;;;;3.85;3.42;;;;;;;14.62;56.50;98355.66;1780038;80;21013;-62
2022/02/22 00:40:06;;;;;;;5.12;3.80;;;;;;;14.63;56.49;98356.45;1768319;80;21022;-61
2022/02/22 00:42:33;;;;;;;3.55;3.25;;;;;;;14.61;56.50;98358.55;1791280;78;21069;-60
2022/02/22 00:45:00;;;;;;;3.65;3.25;;;;;;;14.60;56.51;98348.89;1765291;80;21022;-62
2022/02/22 00:47:27;;;;;;;3.58;3.27;;;;;;;14.60;56.49;98358.23;1770525;80;21626;-62
2022/02/22 00:49:54;;;;;;;4.80;4.12;;;;;;;14.59;56.50;98347.27;1793942;78;20995;-62
2022/02/22 00:52:20;;;;;;;3.55;2.92;;;;;;;14.58;56.51;98349.64;1767649;80;21026;-61
2022/02/22 00:54:46;;;;;;;4.28;3.72;;;;;;;14.57;56.51;98351.50;1796594;78;21096;-62
2022/02/22 00:57:13;;;;;;;3.85;3.42;;;;;;;14.57;56.51;98354.70;1767942;79;21065;-60
2022/02/22 00:59:39;;;;;;;4.53;3.47;;;;;;;14.55;56.51;98358.38;1807829;78;21081;-61
2022/02/22 01:02:05;;;;;;;3.80;3.02;;;;;;;14.54;56.52;98362.10;1769095;80;21585;-62
2022/02/22 01:04:32;;;;;;;3.70;3.17;;;;;;;14.54;56.53;98357.26;1783853;78;21106;-60
2022/02/22 01:06:59;;;;;;;3.62;3.20;;;;;;;14.52;56.51;98362.83;1757284;80;21581;-62
2022/02/22 01:09:25;;;;;;;4.05;3.50;;;;;;;14.52;56.51;98369.50;1823369;77;21173;-60
2022/02/22 01:11:52;;;;;;;3.92;3.33;;;;;;;14.51;56.54;98370.56;1822819;77;21056;-61
2022/02/22 01:14:18;;;;;;;3.40;3.00;;;;;;;14.50;56.53;98368.11;1836999;77;21808;-60
2022/02/22 01:16:45;;;;;;;3.10;2.80;;;;;;;14.49;56.53;98374.52;1815028;77;21003;-61
2022/02/22 01:19:12;;;;;;;3.42;2.87;;;;;;;14.48;56.53;98375.02;1815120;77;20992;-61
2022/02/22 01:21:38;;;;;;;3.58;3.27;;;;;;;14.48;56.53;98376.87;1821204;78;21008;-61
2022/02/22 01:24:05;;;;;;;3.30;3.00;;;;;;;14.46;56.55;98375.77;1836970;77;21090;-60
2022/02/22 01:26:34;;;;;;;4.15;3.55;;;;;;;14.46;56.58;98381.63;1828675;77;21024;-61
2022/02/22 01:29:00;;;;;;;4.05;2.98;;;;;;;14.45;56.55;98383.50;1828747;77;21479;-63
2022/02/22 01:31:27;;;;;;;3.20;2.90;;;;;;;14.44;56.56;98385.05;1818647;77;21081;-62
2022/02/22 01:33:57;;;;;;;3.00;2.70;;;;;;;14.44;56.55;98395.22;1830044;77;20971;-61
2022/02/22 01:36:26;;;;;;;3.80;3.40;;;;;;;14.44;56.56;98394.41;1822633;77;21058;-61
2022/02/22 01:38:53;;;;;;;3.87;2.98;;;;;;;14.43;56.56;98388.75;1824960;77;21421;-60
2022/02/22 01:41:21;;;;;;;3.67;3.05;;;;;;;14.42;56.57;98393.29;1842268;77;21046;-62
2022/02/22 01:43:47;;;;;;;4.17;3.72;;;;;;;14.41;56.58;98405.03;1836429;77;21046;-61
2022/02/22 01:46:13;;;;;;;3.80;3.30;;;;;;;14.41;56.58;98402.86;1835691;77;21018;-61
2022/02/22 01:48:40;;;;;;;3.72;3.37;;;;;;;14.39;56.58;98397.77;1821417;77;21130;-61
2022/02/22 01:51:07;;;;;;;3.80;3.40;;;;;;;14.39;56.58;98395.09;1842424;77;21550;-62
2022/02/22 01:53:34;;;;;;;4.55;3.60;;;;;;;14.39;56.58;98382.23;1839928;77;20998;-60
2022/02/22 01:56:01;;;;;;;4.95;3.60;;;;;;;14.39;56.57;98387.58;1741911;80;21073;-61
2022/02/22 01:58:28;;;;;;;4.30;3.60;;;;;;;14.38;56.58;98379.28;1787318;79;20990;-60
2022/02/22 02:00:57;;;;;;;4.83;3.87;;;;;;;14.36;56.59;98382.98;1779773;79;21234;-61
2022/02/22 02:03:25;;;;;;;4.42;3.70;;;;;;;14.34;56.58;98375.72;1786167;79;21005;-61
2022/02/22 02:05:51;;;;;;;3.83;3.42;;;;;;;14.34;56.58;98371.70;1775413;80;21471;-62
2022/02/22 02:08:18;;;;;;;3.90;3.52;;;;;;;14.33;56.58;98378.11;1750485;80;21070;-62
2022/02/22 02:10:45;;;;;;;4.25;3.45;;;;;;;14.32;56.59;98379.14;1776778;79;21074;-62
2022/02/22 02:13:12;;;;;;;5.00;4.03;;;;;;;14.32;56.61;98372.45;1805005;78;21179;-63
2022/02/22 02:15:39;;;;;;;4.37;3.98;;;;;;;14.32;56.62;98375.66;1794880;78;21520;-62
2022/02/22 02:18:05;;;;;;;3.50;3.20;;;;;;;14.30;56.63;98378.55;1816030;78;21013;-63
2022/02/22 02:20:31;;;;;;;5.08;3.85;;;;;;;14.30;56.63;98381.75;1818567;78;21052;-63
2022/02/22 02:22:58;;;;;;;3.90;3.50;;;;;;;14.30;56.61;98381.22;1808845;78;21001;-63
2022/02/22 02:25:24;;;;;;;4.60;3.92;;;;;;;14.29;56.65;98389.45;1816108;78;21136;-62
2022/02/22 02:27:51;;;;;;;4.25;3.85;;;;;;;14.28;56.65;98393.98;1801372;78;21552;-63
2022/02/22 02:30:17;;;;;;;4.45;3.90;;;;;;;14.29;56.65;98400.97;1811174;77;20998;-63
2022/02/22 02:32:43;;;;;;;4.05;3.55;;;;;;;14.28;56.63;98399.86;1802434;78;21002;-62
2022/02/22 02:35:10;;;;;;;4.00;3.60;;;;;;;14.27;56.64;98408.37;1818075;78;21497;-63
2022/02/22 02:37:37;;;;;;;4.08;3.47;;;;;;;14.27;56.66;98407.56;1804547;78;21133;-62
2022/02/22 02:40:07;;;;;;;4.17;3.70;;;;;;;14.26;56.66;98408.62;1793427;78;21022;-62
2022/02/22 02:42:41;;;;;;;4.35;3.50;;;;;;;14.26;56.64;98409.95;1808740;78;21022;-62
2022/02/22 02:45:10;;;;;;;4.53;3.45;;;;;;;14.24;56.65;98420.86;1803180;78;21045;-63
2022/02/22 02:47:36;;;;;;;4.17;3.77;;;;;;;14.24;56.66;98419.52;1816440;78;21009;-61
2022/02/22 02:50:08;;;;;;;5.00;4.10;;;;;;;14.24;56.69;98429.40;1812357;78;21146;-61
2022/02/22 02:52:35;;;;;;;4.78;4.03;;;;;;;14.22;56.69;98426.94;1816300;78;21084;-62
2022/02/22 02:55:01;;;;;;;4.37;3.98;;;;;;;14.22;56.70;98436.30;1800410;78;21551;-62
2022/02/22 02:57:29;;;;;;;4.40;4.00;;;;;;;14.21;56.73;98434.64;1808086;78;21069;-60
2022/02/22 02:59:58;;;;;;;4.25;3.67;;;;;;;14.21;56.71;98439.18;1817169;78;21006;-62
2022/02/22 03:02:26;;;;;;;4.33;3.62;;;;;;;14.20;56.71;98442.38;1777531;80;21145;-63
2022/02/22 03:04:58;;;;;;;4.15;3.75;;;;;;;14.19;56.72;98444.73;1796774;77;21006;-62
2022/02/22 03:07:21;;;;;;;4.45;4.05;;;;;;;14.19;56.73;98438.59;1825104;77;20998;-62
2022/02/22 03:09:47;;;;;;;4.28;3.65;;;;;;;14.19;56.75;98447.94;1768091;81;20995;-62
2022/02/22 03:12:14;;;;;;;4.45;3.47;;;;;;;14.18;56.74;98445.80;1771416;80;21041;-61
2022/02/22 03:14:40;;;;;;;4.15;3.65;;;;;;;14.18;56.74;98447.63;1780697;80;21725;-62
2022/02/22 03:17:06;;;;;;;4.65;3.90;;;;;;;14.17;56.74;98449.48;1766680;80;21094;-64
2022/02/22 03:19:33;;;;;;;4.03;3.60;;;;;;;14.17;56.74;98460.17;1767709;80;21025;-62
2022/02/22 03:22:00;;;;;;;4.65;3.98;;;;;;;14.15;56.75;98459.05;1765295;80;21010;-61
2022/02/22 03:24:26;;;;;;;4.37;3.98;;;;;;;14.15;56.77;98458.24;1774260;80;21002;-63
2022/02/22 03:26:53;;;;;;;4.20;3.80;;;;;;;14.15;56.75;98463.06;1771654;80;21764;-62
2022/02/22 03:29:19;;;;;;;4.35;3.95;;;;;;;14.15;56.76;98475.08;1772124;80;21014;-62
2022/02/22 03:31:45;;;;;;;4.03;3.60;;;;;;;14.14;56.76;98472.66;1768711;80;21002;-62
2022/02/22 03:34:12;;;;;;;4.33;3.70;;;;;;;14.14;56.77;98479.33;1818701;77;21061;-63
2022/02/22 03:36:38;;;;;;;5.05;3.83;;;;;;;14.14;56.77;98484.67;1821203;77;21046;-62
2022/02/22 03:39:05;;;;;;;4.97;4.22;;;;;;;14.14;56.77;98482.81;1809128;77;21128;-62
2022/02/22 03:41:31;;;;;;;4.20;3.75;;;;;;;14.13;56.75;98480.35;1825195;77;20986;-61
2022/02/22 03:43:58;;;;;;;4.95;4.30;;;;;;;14.13;56.74;98479.02;1813377;77;21025;-62
2022/02/22 03:46:24;;;;;;;4.97;4.40;;;;;;;14.13;56.75;98483.02;1822800;77;21037;-62
2022/02/22 03:48:51;;;;;;;5.30;4.75;;;;;;;14.12;56.77;98482.22;1826614;77;21069;-63
2022/02/22 03:51:17;;;;;;;4.78;4.10;;;;;;;14.12;56.77;98490.23;1829640;77;21121;-63
2022/02/22 03:53:44;;;;;;;4.35;3.95;;;;;;;14.12;56.78;98488.08;1823436;77;21458;-62
2022/02/22 03:56:10;;;;;;;4.37;3.98;;;;;;;14.10;56.79;98488.30;1827669;77;21078;-62
2022/02/22 03:58:37;;;;;;;4.45;4.00;;;;;;;14.11;56.78;98491.25;1801372;77;21039;-62
2022/02/22 04:01:03;;;;;;;4.30;3.72;;;;;;;14.10;56.81;98490.97;1813723;77;21015;-61
2022/02/22 04:03:30;;;;;;;5.10;3.98;;;;;;;14.10;56.79;98490.13;1821848;77;21225;-63
2022/02/22 04:05:57;;;;;;;4.47;4.05;;;;;;;14.10;56.79;98489.63;1830378;77;21025;-62
2022/02/22 04:08:23;;;;;;;5.45;4.58;;;;;;;14.09;56.80;98489.32;1818711;77;21014;-61
2022/02/22 04:10:50;;;;;;;4.70;4.20;;;;;;;14.09;56.77;98491.19;1839619;77;21021;-62
2022/02/22 04:13:17;;;;;;;4.22;3.75;;;;;;;14.08;56.81;98490.88;1822253;77;21070;-61
2022/02/22 04:15:43;;;;;;;4.22;3.83;;;;;;;14.09;56.82;98498.67;1840542;77;21116;-61
2022/02/22 04:18:10;;;;;;;5.15;4.15;;;;;;;14.08;56.82;98494.38;1821497;77;20988;-62
2022/02/22 04:20:36;;;;;;;4.78;4.28;;;;;;;14.08;56.81;98501.55;1833946;77;21049;-62
2022/02/22 04:23:03;;;;;;;6.12;5.03;;;;;;;14.07;56.82;98502.61;1829137;77;21080;-62
2022/02/22 04:25:29;;;;;;;3.92;3.37;;;;;;;14.07;56.83;98495.41;1837030;77;21069;-61
2022/02/22 04:27:56;;;;;;;5.20;4.40;;;;;;;14.06;56.84;98487.61;1818493;77;21107;-63
2022/02/22 04:30:22;;;;;;;4.75;4.00;;;;;;;14.05;56.84;98492.66;1814529;77;21034;-62
2022/02/22 04:32:49;;;;;;;4.78;3.92;;;;;;;14.05;56.83;98491.33;1829107;77;20993;-61
2022/02/22 04:35:15;;;;;;;4.50;3.87;;;;;;;14.04;56.84;98495.02;1838728;77;21755;-61
2022/02/22 04:37:43;;;;;;;4.75;4.25;;;;;;;14.05;56.84;98490.00;1831159;77;21496;-62
2022/02/22 04:40:10;;;;;;;4.62;4.12;;;;;;;14.04;56.86;98497.70;1829295;77;21075;-62
2022/02/22 04:42:37;;;;;;;5.25;4.53;;;;;;;14.03;56.85;98504.90;1837994;77;21005;-60
2022/02/22 04:45:05;;;;;;;4.72;3.95;;;;;;;14.03;56.87;98515.58;1816705;77;21009;-61
2022/02/22 04:47:32;;;;;;;4.85;4.30;;;;;;;14.03;56.87;98514.77;1834516;77;21021;-61
2022/02/22 04:49:59;;;;;;;4.35;3.95;;;;;;;14.02;56.87;98513.93;1829207;77;21544;-64
2022/02/22 04:52:25;;;;;;;4.80;4.30;;;;;;;14.02;56.85;98517.13;1827898;77;21100;-61
2022/02/22 04:54:51;;;;;;;4.55;4.15;;;;;;;14.01;56.86;98515.52;1834421;77;20974;-62
2022/02/22 04:57:18;;;;;;;4.53;3.62;;;;;;;14.01;56.86;98516.84;1828702;77;21467;-62
2022/02/22 04:59:46;;;;;;;4.35;3.92;;;;;;;14.01;56.88;98526.19;1818437;77;21112;-61
2022/02/22 05:02:13;;;;;;;4.58;4.15;;;;;;;14.01;56.87;98534.20;1843861;77;21053;-61
2022/02/22 05:04:39;;;;;;;4.22;3.83;;;;;;;13.99;56.89;98534.94;1824592;77;21104;-62
2022/02/22 05:07:06;;;;;;;4.35;3.95;;;;;;;13.99;56.88;98537.61;1824429;77;21022;-62
2022/02/22 05:09:32;;;;;;;5.08;4.10;;;;;;;13.99;56.89;98549.62;1822943;77;21081;-63
2022/02/22 05:11:59;;;;;;;4.53;4.12;;;;;;;13.98;56.91;98550.65;1827671;77;21430;-61
2022/02/22 05:14:25;;;;;;;4.83;4.05;;;;;;;13.98;56.92;98554.13;1827849;77;21458;-62
2022/02/22 05:16:51;;;;;;;4.53;4.00;;;;;;;13.98;56.90;98555.98;1768638;79;21125;-62
2022/02/22 05:19:18;;;;;;;4.55;4.10;;;;;;;13.97;56.90;98555.18;1777963;79;21504;-63
2022/02/22 05:21:44;;;;;;;5.30;4.30;;;;;;;13.96;56.90;98556.20;1768416;80;21041;-62
2022/02/22 05:24:11;;;;;;;4.42;4.03;;;;;;;13.97;56.91;98557.84;1774642;79;21528;-64
2022/02/22 05:26:38;;;;;;;4.10;3.70;;;;;;;13.96;56.90;98557.04;1785144;79;21031;-63
2022/02/22 05:29:04;;;;;;;4.67;4.22;;;;;;;13.96;56.91;98561.05;1785743;79;21175;-63
2022/02/22 05:31:30;;;;;;;5.10;4.20;;;;;;;13.96;56.92;98566.88;1774239;80;21084;-63
2022/02/22 05:33:57;;;;;;;4.78;4.10;;;;;;;13.95;56.91;98563.40;1797827;79;21030;-63
2022/02/22 05:36:24;;;;;;;4.03;3.62;;;;;;;13.95;56.90;98569.27;1759986;80;21034;-65
2022/02/22 05:38:50;;;;;;;4.33;3.92;;;;;;;13.94;56.88;98569.77;1784885;79;20973;-63
2022/02/22 05:41:19;;;;;;;4.03;3.65;;;;;;;13.94;56.89;98581.78;1763930;79;21118;-63
2022/02/22 05:43:47;;;;;;;4.90;4.28;;;;;;;13.94;56.90;98578.30;1745050;80;21071;-63
2022/02/22 05:46:13;;;;;;;4.83;4.22;;;;;;;13.93;56.89;98585.50;1796504;79;21049;-63
2022/02/22 05:48:40;;;;;;;4.53;3.90;;;;;;;13.93;56.89;98589.50;1791608;79;21459;-63
2022/02/22 05:51:06;;;;;;;4.80;3.95;;;;;;;13.93;56.90;98598.84;1782248;79;21014;-62
2022/02/22 05:53:33;;;;;;;5.85;4.42;;;;;;;13.92;56.90;98595.86;1778260;79;21089;-63
2022/02/22 05:56:01;;;;;;;4.35;3.95;;;;;;;13.92;56.93;98600.39;1789934;79;21015;-63
2022/02/22 05:58:28;;;;;;;4.90;4.45;;;;;;;13.91;56.91;98599.58;1772601;80;21513;-62
2022/02/22 06:00:54;;;;;;;4.78;4.15;;;;;;;13.90;56.91;98597.94;1802196;79;21319;-63
2022/02/22 06:03:21;;;;;;;4.67;4.03;;;;;;;13.91;56.92;98606.78;1793010;79;21033;-63
2022/02/22 06:05:47;;;;;;;5.03;4.50;;;;;;;13.91;56.89;98610.27;1777736;79;23254;-62
2022/02/22 06:08:13;;;;;;;4.92;4.33;;;;;;;13.91;56.91;98610.79;1749398;81;21061;-64
2022/02/22 06:10:40;;;;;;;5.58;4.42;;;;;;;13.91;56.90;98621.47;1789010;79;21062;-62
2022/02/22 06:13:06;;;;;;;5.35;4.85;;;;;;;13.91;56.90;98627.62;1794847;79;21480;-62
2022/02/22 06:15:32;;;;;;;5.45;4.12;;;;;;;13.90;56.90;98628.64;1785006;79;21026;-64
2022/02/22 06:17:59;;;;;;;4.80;4.33;;;;;;;13.91;56.89;98628.95;1796813;79;21046;-63
2022/02/22 06:20:27;;;;;;;4.78;4.35;;;;;;;13.90;56.91;98628.64;1803654;79;20990;-63
2022/02/22 06:22:53;;;;;;;4.62;4.05;;;;;;;13.91;56.90;98625.47;1786458;79;21017;-63
2022/02/22 06:25:20;;;;;;;4.65;4.15;;;;;;;13.91;56.89;98634.30;1789246;79;21062;-62
2022/02/22 06:27:51;;;;;;;5.08;4.37;;;;;;;13.91;56.88;98637.48;1784263;79;21066;-61
2022/02/22 06:30:19;;;;;;;5.50;4.35;;;;;;;13.92;56.89;98641.77;1808841;79;21102;-63
2022/02/22 06:32:46;;;;;;;4.33;3.92;;;;;;;13.90;56.90;98641.98;1783418;79;21067;-64
2022/02/22 06:35:14;;;;;;;5.05;4.55;;;;;;;13.91;56.88;98648.16;1786315;79;21013;-63
2022/02/22 06:37:41;;;;;;;4.97;4.47;;;;;;;13.91;56.87;98650.31;1791235;79;21542;-63
2022/02/22 06:40:08;;;;;;;4.35;3.85;;;;;;;13.91;56.88;98646.83;1795896;79;21470;-64
2022/02/22 06:42:36;;;;;;;4.97;4.00;;;;;;;13.91;56.87;98650.84;1790989;79;21140;-62
2022/02/22 06:45:04;;;;;;;5.15;4.42;;;;;;;13.92;56.89;98651.93;1790272;79;21006;-63
2022/02/22 06:47:32;;;;;;;5.67;4.55;;;;;;;13.91;56.88;98652.98;1787253;79;21014;-65
2022/02/22 06:49:58;;;;;;;5.25;4.72;;;;;;;13.92;56.88;98648.45;1777059;79;21098;-63
2022/02/22 06:52:25;;;;;;;5.25;4.75;;;;;;;13.91;56.89;98651.64;1799272;79;21052;-62
2022/02/22 06:54:51;;;;;;;4.92;4.42;;;;;;;13.91;56.89;98648.97;1809012;79;21044;-64
2022/02/22 06:57:18;;;;;;;5.00;4.50;;;;;;;13.92;56.88;98658.61;1804437;79;21011;-63
2022/02/22 06:59:44;;;;;;;5.30;4.78;;;;;;;13.92;56.89;98654.59;1801220;79;21545;-66
2022/02/22 07:02:11;;;;;;;5.60;4.75;;;;;;;13.93;56.89;98657.59;1806281;79;21521;-63
2022/02/22 07:04:37;;;;;;;4.50;3.87;;;;;;;13.93;56.88;98659.45;1742730;82;21045;-64
2022/02/22 07:07:06;;;;;;;5.55;4.83;;;;;;;13.94;56.88;98663.73;1746973;80;21126;-62
2022/02/22 07:09:33;;;;;;;5.97;4.75;;;;;;;13.95;56.88;98660.86;1770612;80;21077;-63
2022/02/22 07:12:01;;;;;;;5.08;4.40;;;;;;;13.95;56.86;98667.53;1793033;79;21466;-64
2022/02/22 07:14:27;;;;;;;4.70;4.20;;;;;;;13.96;56.85;98668.34;1785549;79;21080;-63
2022/02/22 07:16:55;;;;;;;5.15;4.33;;;;;;;13.98;56.86;98670.80;1792927;79;21069;-64
2022/02/22 07:19:22;;;;;;;5.22;4.72;;;;;;;13.99;56.85;98669.78;1789707;79;21133;-64
2022/02/22 07:21:49;;;;;;;6.08;4.97;;;;;;;13.99;56.83;98676.45;1760856;80;21041;-63
2022/02/22 07:24:16;;;;;;;4.50;3.92;;;;;;;14.00;56.85;98674.07;1746246;81;21748;-65
2022/02/22 07:26:43;;;;;;;5.97;4.80;;;;;;;14.01;56.83;98671.72;1827800;77;21045;-64
2022/02/22 07:29:09;;;;;;;5.28;4.47;;;;;;;14.03;56.83;98674.45;1837616;77;21049;-64
2022/02/22 07:31:36;;;;;;;5.70;4.67;;;;;;;14.04;56.83;98676.60;1835020;77;21132;-63
2022/02/22 07:34:02;;;;;;;5.55;4.70;;;;;;;14.05;56.83;98678.25;1818762;77;21049;-64
2022/02/22 07:36:28;;;;;;;5.67;4.87;;;;;;;14.07;56.81;98682.86;1831407;77;21045;-64
2022/02/22 07:38:55;;;;;;;5.45;4.83;;;;;;;14.06;56.79;98675.37;1817878;77;21017;-64
2022/02/22 07:41:24;;;;;;;6.03;5.12;;;;;;;14.08;56.75;98678.64;1831736;77;21029;-63
2022/02/22 07:43:51;;;;;;;5.42;4.70;;;;;;;14.10;56.74;98678.41;1813679;77;21132;-63
2022/02/22 07:46:18;;;;;;;4.97;4.50;;;;;;;14.11;56.73;98678.72;1830846;77;21545;-65
2022/02/22 07:48:47;;;;;;;5.58;4.97;;;;;;;14.13;56.72;98683.33;1830068;77;21013;-64
2022/02/22 07:51:16;;;;;;;4.95;4.45;;;;;;;14.14;56.69;98687.64;1830197;77;21029;-64
2022/02/22 07:53:44;;;;;;;5.90;4.67;;;;;;;14.18;56.69;98688.84;1822143;77;21060;-66
2022/02/22 07:56:11;;;;;;;5.28;4.45;;;;;;;14.20;56.68;98685.44;1820416;77;21126;-66
2022/02/22 07:58:38;;;;;;;5.50;4.95;;;;;;;14.21;56.70;98688.39;1834091;77;21118;-65
2022/02/22 08:01:06;;;;;;;6.28;4.95;;;;;;;14.24;56.64;98691.16;1817917;77;21046;-64
2022/02/22 08:03:35;;;;;;;5.47;4.60;;;;;;;14.25;56.63;98689.59;1832260;77;22069;-65
2022/02/22 08:06:02;;;;;;;6.03;5.15;;;;;;;14.28;56.62;98688.36;1821059;77;21030;-64
2022/02/22 08:08:28;;;;;;;5.70;4.97;;;;;;;14.29;56.61;98692.15;1819442;77;21122;-63
2022/02/22 08:10:55;;;;;;;5.40;4.90;;;;;;;14.32;56.58;98690.36;1827823;76;21046;-63
2022/02/22 08:13:21;;;;;;;6.50;5.00;;;;;;;14.34;56.57;98685.61;1833926;76;21021;-64
2022/02/22 08:15:47;;;;;;;9.20;5.40;;;;;;;14.37;56.55;98685.72;1822004;77;20979;-66
2022/02/22 08:18:14;;;;;;;11.33;5.53;;;;;;;14.44;64.97;98630.88;1833029;77;21727;-66
2022/02/22 08:20:41;;;;;;;5.75;4.17;;;;;;;14.66;70.74;98666.03;1823906;77;21083;-67
2022/02/22 08:23:08;;;;;;;8.55;5.25;;;;;;;15.02;72.48;98664.44;1824952;77;20958;-70
2022/02/22 08:25:35;;;;;;;8.18;5.08;;;;;;;15.41;72.45;98670.34;1822527;77;21030;-68
2022/02/22 08:28:11;;;;;;;8.10;5.60;;;;;;;15.70;71.93;98672.23;1824580;77;21573;-68
2022/02/22 08:30:38;;;;;;;29.25;11.75;;;;;;;15.97;70.93;98676.40;1823704;77;21005;-69
2022/02/22 08:33:08;;;;;;;25.10;11.50;;;;;;;16.22;69.48;98677.02;1821838;77;21192;-69
2022/02/22 08:35:35;;;;;;;22.32;10.50;;;;;;;16.45;68.56;98686.14;1824885;77;21500;-65
2022/02/22 08:38:01;;;;;;;18.23;10.40;;;;;;;16.70;67.29;98653.73;1823493;77;21031;-61
2022/02/22 08:40:28;;;;;;;26.57;11.43;;;;;;;16.89;65.88;98643.73;1829434;77;21504;-60
2022/02/22 08:42:54;;;;;;;36.25;12.07;;;;;;;17.06;64.84;98646.50;1833225;77;21044;-62
2022/02/22 08:45:21;;;;;;;32.23;12.20;;;;;;;17.22;63.95;98640.91;1825776;77;21625;-61
2022/02/22 08:47:48;;;;;;;34.95;13.43;;;;;;;17.37;63.26;98652.48;1834251;77;20978;-62
2022/02/22 08:50:14;;;;;;;34.15;12.93;;;;;;;17.51;62.85;98642.27;1840307;77;21563;-63
2022/02/22 08:52:41;;;;;;;36.75;12.47;;;;;;;17.65;62.66;98648.95;1829174;77;21029;-64
2022/02/22 08:55:10;;;;;;;26.82;10.28;;;;;;;17.78;62.56;98654.03;1829909;77;21013;-64
2022/02/22 08:57:37;;;;;;;33.58;11.90;;;;;;;17.91;62.35;98652.95;1819288;77;21114;-64
2022/02/22 09:00:09;;;;;;;29.32;10.85;;;;;;;18.03;62.08;98643.48;1815229;77;21599;-65
2022/02/22 09:02:38;;;;;;;27.87;9.40;;;;;;;18.15;61.81;98648.77;1817845;77;21027;-65
2022/02/22 09:05:05;;;;;;;28.20;9.73;;;;;;;18.26;61.63;98656.75;1833021;77;21612;-64
2022/02/22 09:07:34;;;;;;;25.62;9.35;;;;;;;18.37;61.44;98659.59;1826837;76;21123;-63
2022/02/22 09:10:00;;;;;;;25.12;10.60;;;;;;;18.47;61.35;98693.38;1832684;77;21108;-67
2022/02/22 09:12:27;;;;;;;21.87;9.53;;;;;;;18.59;61.24;98698.67;1843835;77;21069;-65
2022/02/22 09:14:56;;;;;;;21.00;9.60;;;;;;;18.70;61.10;98695.58;1815013;77;21040;-63
2022/02/22 09:17:31;;;;;;;19.82;8.18;;;;;;;18.80;61.11;98660.27;1821096;77;21051;-61
2022/02/22 09:19:58;;;;;;;21.42;8.38;;;;;;;18.90;60.89;98663.62;1840771;77;21038;-65
2022/02/22 09:22:24;;;;;;;25.95;7.92;;;;;;;19.01;60.52;98672.66;1822492;77;21853;-64
2022/02/22 09:24:51;;;;;;;19.05;8.03;;;;;;;19.10;60.05;98654.99;1828327;77;21022;-61
2022/02/22 09:27:17;;;;;;;22.25;7.97;;;;;;;19.20;59.40;98665.07;1819463;77;21036;-62
2022/02/22 09:29:44;;;;;;;14.70;6.97;;;;;;;19.29;59.12;98673.54;1825531;77;21036;-61
2022/02/22 09:32:11;;;;;;;19.35;7.40;;;;;;;19.38;58.89;98672.03;1815017;76;21132;-65
2022/02/22 09:34:37;;;;;;;13.40;6.90;;;;;;;19.47;58.75;98666.49;1828477;77;21271;-65
2022/02/22 09:37:05;;;;;;;16.00;7.33;;;;;;;19.57;58.51;98665.79;1837626;77;20974;-62
2022/02/22 09:39:31;;;;;;;20.45;8.98;;;;;;;19.65;58.18;98661.28;1824805;77;21244;-62
2022/02/22 09:41:58;;;;;;;20.25;8.50;;;;;;;19.74;57.95;98648.19;1827437;77;21392;-63
2022/02/22 09:44:25;;;;;;;22.17;7.50;;;;;;;19.83;57.74;98654.20;1816730;77;21595;-64
2022/02/22 09:46:51;;;;;;;14.70;7.08;;;;;;;19.91;57.43;98663.71;1826386;77;21119;-63
2022/02/22 09:49:18;;;;;;;17.55;8.00;;;;;;;20.00;57.14;98656.80;1843689;77;21463;-62
2022/02/22 09:51:46;;;;;;;13.60;6.92;;;;;;;20.08;56.99;98655.52;1828600;77;21002;-62
2022/02/22 09:54:12;;;;;;;14.18;7.00;;;;;;;20.17;56.79;98643.19;1847455;77;21041;-62
2022/02/22 09:56:45;;;;;;;13.18;6.87;;;;;;;20.27;56.49;98641.66;1847449;77;20982;-62
2022/02/22 09:59:12;;;;;;;14.78;7.50;;;;;;;20.34;56.30;98651.15;1831066;76;21789;-63
2022/02/22 10:01:42;;;;;;;12.23;6.80;;;;;;;20.44;56.12;98654.45;1814910;77;21049;-62
2022/02/22 10:04:08;;;;;;;13.95;6.22;;;;;;;20.53;55.93;98646.67;1829601;77;21045;-62
2022/02/22 10:06:35;;;;;;;11.15;6.28;;;;;;;20.61;55.60;98644.89;1820880;77;21033;-62
2022/02/22 10:09:02;;;;;;;15.83;7.22;;;;;;;20.70;55.32;98649.25;1825609;77;21533;-64
2022/02/22 10:11:30;;;;;;;16.73;7.03;;;;;;;20.79;55.02;98646.33;1821915;77;21132;-61
2022/02/22 10:14:01;;;;;;;13.45;7.60;;;;;;;20.88;54.84;98642.59;1828427;77;21493;-62
2022/02/22 10:16:42;;;;;;;13.68;7.03;;;;;;;20.96;54.63;98646.16;1819813;77;21112;-63
2022/02/22 10:19:09;;;;;;;10.65;5.80;;;;;;;21.04;54.47;98638.09;1827038;77;21555;-62
2022/02/22 10:21:55;;;;;;;15.83;6.58;;;;;;;21.13;54.41;98654.04;1817678;77;21014;-63
2022/02/22 10:24:21;;;;;;;10.68;5.83;;;;;;;21.21;54.30;98654.91;1822814;77;21164;-64
2022/02/22 10:26:48;;;;;;;11.53;5.85;;;;;;;21.30;54.10;98663.30;1827106;77;21064;-64
2022/02/22 10:29:18;;;;;;;9.03;5.67;;;;;;;21.37;53.93;98646.31;1832193;77;21041;-64
2022/02/22 10:31:46;;;;;;;14.53;6.25;;;;;;;21.46;53.78;98643.92;1824328;77;21481;-64
2022/02/22 10:34:12;;;;;;;16.95;6.65;;;;;;;21.54;53.60;98644.23;1844072;77;21056;-63
2022/02/22 10:36:41;;;;;;;16.15;6.47;;;;;;;21.62;53.42;98638.03;1834523;76;21123;-63
2022/02/22 10:39:10;;;;;;;14.10;6.35;;;;;;;21.71;53.45;98659.37;1822981;76;20991;-61
2022/02/22 10:41:43;;;;;;;13.72;6.28;;;;;;;21.78;53.15;98649.94;1832309;77;21611;-64
2022/02/22 10:44:11;;;;;;;18.23;6.42;;;;;;;21.86;52.85;98654.00;1833955;76;20974;-63
2022/02/22 10:46:45;;;;;;;15.83;6.85;;;;;;;21.93;52.72;98645.64;1830711;76;21061;-65
2022/02/22 10:49:13;;;;;;;12.93;6.22;;;;;;;21.99;52.38;98642.66;1824551;77;21093;-65
2022/02/22 10:51:45;;;;;;;11.93;6.40;;;;;;;22.07;52.26;98629.14;1827105;77;21035;-62
2022/02/22 10:54:22;;;;;;;12.43;5.83;;;;;;;22.13;52.02;98653.74;1826767;77;21616;-63
2022/02/22 10:56:49;;;;;;;15.25;6.03;;;;;;;22.20;51.67;98638.61;1824091;77;20990;-62
2022/02/22 10:59:18;;;;;;;11.00;5.45;;;;;;;22.26;51.41;98673.27;1829956;77;21069;-62
2022/02/22 11:01:45;;;;;;;17.32;5.60;;;;;;;22.33;51.39;98646.77;1832990;77;21567;-64
2022/02/22 11:04:14;;;;;;;11.65;5.83;;;;;;;22.39;51.50;98636.20;1791795;79;21038;-62
2022/02/22 11:06:40;;;;;;;12.33;6.08;;;;;;;22.45;51.01;98625.63;1817163;76;21025;-63
2022/02/22 11:09:08;;;;;;;13.08;5.70;;;;;;;22.50;50.43;98628.34;1825010;77;21073;-62
2022/02/22 11:11:41;;;;;;;10.93;6.10;;;;;;;22.56;50.02;98634.52;1823534;77;21554;-63
2022/02/22 11:14:14;;;;;;;18.10;5.83;;;;;;;22.62;49.80;98640.74;1786784;79;21073;-62
2022/02/22 11:16:47;;;;;;;10.60;5.20;;;;;;;22.68;49.67;98635.06;1775418;79;21532;-62
2022/02/22 11:19:20;;;;;;;11.65;5.53;;;;;;;22.76;49.55;98645.87;1789047;79;21005;-62
2022/02/22 11:21:53;;;;;;;9.33;5.12;;;;;;;22.84;49.40;98632.31;1767431;80;21048;-61
2022/02/22 11:24:21;;;;;;;10.48;4.85;;;;;;;22.93;49.12;98619.83;1785505;79;21053;-62
2022/02/22 11:26:57;;;;;;;9.00;4.72;;;;;;;23.00;48.85;98633.86;1756446;79;21749;-62
2022/02/22 11:29:26;;;;;;;9.30;4.70;;;;;;;23.08;48.72;98641.99;1783581;78;21551;-62
2022/02/22 11:32:07;;;;;;;9.40;5.30;;;;;;;23.16;48.56;98652.27;1778977;79;21030;-61
2022/02/22 11:34:39;;;;;;;6.72;4.75;;;;;;;23.23;48.51;98648.70;1757262;80;21188;-63